createdAt,value
2019-01-26T00:02:05.858Z,33.67
2019-01-26T00:04:40.387Z,31.97
2019-01-26T00:07:11.885Z,32.63
2019-01-26T00:09:44.690Z,30.33
2019-01-26T00:12:18.593Z,31.60
2019-01-26T00:14:50.210Z,32.30
2019-01-26T00:17:25.434Z,30.87
2019-01-26T00:19:57.852Z,28.70
2019-01-26T00:22:28.615Z,31.03
2019-01-26T00:25:00.389Z,32.27
2019-01-26T00:27:32.163Z,30.90
2019-01-26T00:30:08.595Z,30.60
2019-01-26T00:32:41.257Z,33.13
2019-01-26T00:35:12.666Z,31.80
2019-01-26T00:37:43.886Z,30.63
2019-01-26T00:40:18.108Z,30.50
2019-01-26T00:42:52.587Z,31.27
2019-01-26T00:45:24.605Z,30.97
2019-01-26T00:47:59.812Z,31.97
2019-01-26T00:50:33.070Z,29.37
2019-01-26T00:53:07.461Z,32.23
2019-01-26T00:55:40.460Z,30.30
2019-01-26T00:58:11.622Z,29.97
2019-01-26T01:00:44.400Z,30.87
2019-01-26T01:03:20.132Z,31.43
2019-01-26T01:05:52.051Z,31.73
2019-01-26T01:08:25.433Z,31.77
2019-01-26T01:10:57.662Z,31.97
2019-01-26T01:13:29.034Z,31.37
2019-01-26T01:16:02.723Z,29.77
2019-01-26T01:18:33.595Z,33.53
2019-01-26T01:21:06.746Z,32.97
2019-01-26T01:23:40.539Z,33.40
2019-01-26T01:26:14.508Z,33.10
2019-01-26T01:28:50.276Z,31.93
2019-01-26T01:31:56.455Z,32.27
2019-01-26T01:34:29.134Z,31.07
2019-01-26T01:37:01.361Z,33.63
2019-01-26T01:39:32.625Z,32.20
2019-01-26T01:42:06.962Z,33.03
2019-01-26T01:44:41.374Z,33.67
2019-01-26T01:47:16.104Z,34.07
2019-01-26T01:49:49.342Z,30.37
2019-01-26T01:52:21.426Z,32.23
2019-01-26T01:54:53.403Z,35.13
2019-01-26T01:57:27.344Z,33.90
2019-01-26T01:59:58.774Z,34.23
2019-01-26T02:02:29.954Z,34.30
2019-01-26T02:05:02.778Z,35.23
2019-01-26T02:07:35.033Z,32.77
2019-01-26T02:10:08.565Z,33.80
2019-01-26T02:12:58.308Z,32.00
2019-01-26T02:15:29.538Z,34.17
2019-01-26T02:18:01.512Z,32.33
2019-01-26T02:20:32.889Z,32.87
2019-01-26T02:23:05.947Z,32.10
2019-01-26T02:25:38.131Z,33.50
2019-01-26T02:28:10.988Z,36.73
2019-01-26T02:30:43.033Z,32.50
2019-01-26T02:33:14.032Z,35.07
2019-01-26T02:35:47.506Z,31.70
2019-01-26T02:38:19.092Z,35.23
2019-01-26T02:40:52.432Z,33.17
2019-01-26T02:43:26.945Z,31.73
2019-01-26T02:45:57.504Z,34.10
2019-01-26T02:48:30.476Z,32.37
2019-01-26T02:51:02.029Z,30.67
2019-01-26T02:53:38.236Z,34.80
2019-01-26T02:56:09.418Z,32.20
2019-01-26T02:58:43.083Z,32.13
2019-01-26T03:01:18.009Z,29.93
2019-01-26T03:03:51.819Z,36.03
2019-01-26T03:06:27.052Z,35.13
2019-01-26T03:09:00.530Z,31.83
2019-01-26T03:11:34.115Z,32.27
2019-01-26T03:14:09.193Z,30.97
2019-01-26T03:16:44.226Z,34.33
2019-01-26T03:19:23.087Z,31.50
2019-01-26T03:21:56.672Z,33.47
2019-01-26T03:24:28.569Z,33.90
2019-01-26T03:27:02.466Z,31.60
2019-01-26T03:29:36.668Z,33.50
2019-01-26T03:32:09.049Z,31.60
2019-01-26T03:34:43.929Z,31.20
2019-01-26T03:37:15.948Z,29.07
2019-01-26T03:39:47.425Z,29.30
2019-01-26T03:42:19.809Z,27.93
2019-01-26T03:44:54.920Z,33.53
2019-01-26T03:47:28.828Z,30.83
2019-01-26T03:50:03.512Z,30.63
2019-01-26T03:52:35.441Z,29.50
2019-01-26T03:55:11.287Z,29.40
2019-01-26T03:57:42.045Z,31.67
2019-01-26T04:00:15.655Z,33.30
2019-01-26T04:02:49.355Z,30.40
2019-01-26T04:05:23.567Z,31.87
2019-01-26T04:07:55.078Z,29.50
2019-01-26T04:10:28.289Z,32.63
2019-01-26T04:13:01.048Z,33.00
2019-01-26T04:15:34.181Z,31.77
2019-01-26T04:18:05.238Z,30.90
2019-01-26T04:20:36.138Z,31.70
2019-01-26T04:23:09.420Z,24.37
2019-01-26T04:25:45.221Z,28.47
2019-01-26T04:28:18.833Z,30.13
2019-01-26T04:30:51.309Z,25.43
2019-01-26T04:33:24.125Z,25.47
2019-01-26T04:35:57.224Z,26.60
2019-01-26T04:38:29.004Z,25.57
2019-01-26T04:41:01.897Z,22.93
2019-01-26T04:44:04.355Z,23.13
2019-01-26T04:46:37.796Z,21.63
2019-01-26T04:49:08.297Z,22.93
2019-01-26T04:51:42.956Z,24.33
2019-01-26T04:54:14.951Z,22.53
2019-01-26T04:56:48.021Z,20.03
2019-01-26T04:59:20.521Z,21.90
2019-01-26T05:01:53.922Z,21.80
2019-01-26T05:04:27.604Z,21.37
2019-01-26T05:07:01.394Z,18.60
2019-01-26T05:09:34.324Z,17.20
2019-01-26T05:12:08.905Z,18.67
2019-01-26T05:14:42.038Z,17.53
2019-01-26T05:17:16.005Z,17.57
2019-01-26T05:19:52.229Z,19.63
2019-01-26T05:22:25.941Z,16.93
2019-01-26T05:24:58.748Z,17.20
2019-01-26T05:27:32.409Z,15.90
2019-01-26T05:30:28.010Z,14.23
2019-01-26T05:32:59.994Z,14.07
2019-01-26T05:35:31.259Z,14.37
2019-01-26T05:38:04.432Z,13.83
2019-01-26T05:40:38.350Z,18.77
2019-01-26T05:43:10.601Z,15.17
2019-01-26T05:48:44.088Z,11.93
2019-01-26T05:51:50.807Z,13.40
2019-01-26T05:54:26.412Z,12.47
2019-01-26T05:57:01.314Z,11.83
2019-01-26T05:59:33.985Z,10.30
2019-01-26T06:02:07.480Z,12.43
2019-01-26T06:04:41.225Z,10.43
2019-01-26T06:07:14.667Z,10.00
2019-01-26T06:09:46.377Z,8.97
2019-01-26T06:12:19.259Z,9.20
2019-01-26T06:14:53.441Z,8.47
2019-01-26T06:17:27.579Z,7.53
2019-01-26T06:19:59.591Z,8.40
2019-01-26T06:22:35.371Z,6.90
2019-01-26T06:25:11.462Z,7.27
2019-01-26T06:27:46.683Z,7.43
2019-01-26T06:30:23.154Z,6.20
2019-01-26T06:33:02.551Z,6.83
2019-01-26T06:35:36.363Z,6.57
2019-01-26T06:38:10.144Z,6.13
2019-01-26T06:40:42.573Z,6.60
2019-01-26T06:43:14.891Z,5.90
2019-01-26T06:45:47.539Z,5.87
2019-01-26T06:48:28.593Z,5.77
2019-01-26T06:54:22.229Z,5.53
2019-01-26T06:56:55.596Z,5.30
2019-01-26T06:59:27.271Z,5.77
2019-01-26T07:02:00.419Z,5.83
2019-01-26T07:04:46.803Z,5.43
2019-01-26T07:07:19.110Z,5.30
2019-01-26T07:09:55.681Z,5.20
2019-01-26T07:12:29.584Z,6.40
2019-01-26T07:15:04.132Z,5.27
2019-01-26T07:17:36.825Z,4.40
2019-01-26T07:20:15.735Z,4.93
2019-01-26T07:22:47.267Z,4.97
2019-01-26T07:25:30.418Z,5.43
2019-01-26T07:28:04.644Z,4.93
2019-01-26T07:30:36.166Z,4.53
2019-01-26T07:33:07.899Z,4.90
2019-01-26T07:35:50.148Z,4.63
2019-01-26T07:38:23.938Z,4.97
2019-01-26T07:40:56.238Z,4.80
2019-01-26T07:43:30.900Z,4.87
2019-01-26T07:46:04.021Z,4.90
2019-01-26T07:48:35.994Z,5.27
2019-01-26T07:51:07.282Z,4.93
2019-01-26T07:53:40.471Z,3.83
2019-01-26T07:56:13.138Z,4.80
2019-01-26T07:58:48.841Z,4.00
2019-01-26T08:01:20.633Z,4.80
2019-01-26T08:03:51.743Z,4.80
2019-01-26T08:06:23.466Z,4.63
2019-01-26T08:08:54.022Z,5.07
2019-01-26T08:11:26.492Z,4.57
2019-01-26T08:13:59.669Z,5.07
2019-01-26T08:16:37.575Z,4.43
2019-01-26T08:19:09.226Z,4.73
2019-01-26T08:21:41.018Z,5.43
2019-01-26T08:24:14.348Z,4.57
2019-01-26T08:26:52.292Z,4.73
2019-01-26T08:29:28.061Z,5.00
2019-01-26T08:32:14.281Z,4.87
2019-01-26T08:34:46.150Z,5.50
2019-01-26T08:37:19.259Z,5.23
2019-01-26T08:39:53.854Z,5.30
2019-01-26T08:42:27.563Z,5.07
2019-01-26T08:45:00.634Z,4.47
2019-01-26T08:47:31.007Z,4.73
2019-01-26T08:50:02.087Z,5.57
2019-01-26T08:52:33.593Z,4.60
2019-01-26T08:55:04.655Z,5.03
2019-01-26T08:57:35.739Z,4.67
2019-01-26T09:00:13.704Z,5.40
2019-01-26T09:02:49.101Z,5.37
2019-01-26T09:05:21.128Z,5.17
2019-01-26T09:07:52.355Z,5.13
2019-01-26T09:10:25.452Z,4.73
2019-01-26T09:12:56.449Z,5.03
2019-01-26T09:15:27.278Z,5.13
2019-01-26T09:17:59.140Z,5.90
2019-01-26T09:20:29.654Z,4.93
2019-01-26T09:23:03.305Z,5.17
2019-01-26T09:25:33.666Z,5.93
2019-01-26T09:28:04.707Z,5.30
2019-01-26T09:30:36.609Z,5.33
2019-01-26T09:33:07.051Z,5.40
2019-01-26T09:35:47.837Z,6.37
2019-01-26T09:38:20.882Z,5.13
2019-01-26T09:40:55.209Z,6.80
2019-01-26T09:43:28.996Z,5.13
2019-01-26T09:46:01.475Z,4.83
2019-01-26T09:48:31.607Z,4.60
2019-01-26T09:51:02.109Z,4.80
2019-01-26T09:53:51.700Z,4.77
2019-01-26T09:56:25.111Z,4.20
2019-01-26T09:58:58.360Z,5.00
2019-01-26T10:01:31.979Z,5.33
2019-01-26T10:04:03.724Z,4.37
2019-01-26T10:06:35.690Z,4.13
2019-01-26T10:09:09.686Z,4.00
2019-01-26T10:11:56.642Z,3.87
2019-01-26T10:17:34.306Z,3.57
2019-01-26T10:20:09.178Z,3.73
2019-01-26T10:22:41.759Z,3.97
2019-01-26T10:25:18.123Z,4.23
2019-01-26T10:27:50.579Z,3.63
2019-01-26T10:30:30.901Z,4.33
2019-01-26T10:33:02.081Z,4.27
2019-01-26T10:35:49.101Z,3.33
2019-01-26T10:38:23.520Z,3.20
2019-01-26T10:40:59.601Z,3.13
2019-01-26T10:43:38.254Z,3.07
2019-01-26T10:46:10.302Z,3.50
2019-01-26T10:48:40.657Z,3.17
2019-01-26T10:51:12.619Z,3.57
2019-01-26T10:53:45.686Z,3.27
2019-01-26T10:56:18.907Z,3.37
2019-01-26T10:58:50.567Z,3.40
2019-01-26T11:01:26.238Z,2.60
2019-01-26T11:04:02.532Z,2.50
2019-01-26T11:06:35.800Z,2.93
2019-01-26T11:09:09.377Z,3.27
2019-01-26T11:11:45.487Z,3.50
2019-01-26T11:14:18.417Z,3.17
2019-01-26T11:16:50.240Z,3.67
2019-01-26T11:19:22.072Z,3.50
2019-01-26T11:21:53.370Z,3.93
2019-01-26T11:24:29.922Z,3.03
2019-01-26T11:27:00.561Z,3.57
2019-01-26T11:29:31.503Z,3.83
2019-01-26T11:32:03.760Z,3.57
2019-01-26T11:34:38.744Z,3.70
2019-01-26T11:37:10.700Z,3.27
2019-01-26T11:39:45.700Z,4.00
2019-01-26T11:42:28.115Z,3.60
2019-01-26T11:45:06.485Z,3.40
2019-01-26T11:47:39.950Z,4.03
2019-01-26T11:50:16.294Z,3.47
2019-01-26T11:52:46.809Z,4.00
2019-01-26T11:55:32.174Z,4.40
2019-01-26T11:58:04.993Z,4.33
2019-01-26T12:00:59.494Z,4.10
2019-01-26T12:03:31.962Z,4.10
2019-01-26T12:06:09.952Z,3.80
2019-01-26T12:08:43.495Z,4.07
2019-01-26T12:11:25.491Z,4.20
2019-01-26T12:14:00.557Z,5.03
2019-01-26T12:16:33.511Z,4.33
2019-01-26T12:19:06.020Z,4.60
2019-01-26T12:21:38.654Z,5.37
2019-01-26T12:24:13.421Z,5.70
2019-01-26T12:26:44.200Z,5.33
2019-01-26T12:29:15.467Z,5.07
2019-01-26T12:31:58.201Z,5.90
2019-01-26T12:34:29.559Z,5.93
2019-01-26T12:37:02.382Z,5.87
2019-01-26T12:39:37.733Z,5.90
2019-01-26T12:42:34.223Z,5.50
2019-01-26T12:45:10.060Z,5.90
2019-01-26T12:47:43.093Z,6.40
2019-01-26T12:50:14.672Z,5.27
2019-01-26T12:52:47.450Z,7.33
2019-01-26T12:55:20.071Z,4.77
2019-01-26T12:57:53.372Z,4.90
2019-01-26T13:00:28.307Z,4.67
2019-01-26T13:03:01.176Z,4.70
2019-01-26T13:05:32.850Z,4.37
2019-01-26T13:08:05.693Z,4.53
2019-01-26T13:10:43.447Z,4.03
2019-01-26T13:13:20.062Z,4.47
2019-01-26T13:15:51.120Z,3.87
2019-01-26T13:18:25.683Z,3.97
2019-01-26T13:20:57.631Z,3.80
2019-01-26T13:23:31.821Z,4.00
2019-01-26T13:26:06.655Z,3.87
2019-01-26T13:28:38.896Z,5.67
2019-01-26T13:31:10.156Z,3.60
2019-01-26T13:33:45.353Z,4.33
2019-01-26T13:36:17.035Z,4.17
2019-01-26T13:38:52.367Z,4.10
2019-01-26T13:41:26.637Z,4.27
2019-01-26T13:43:58.115Z,4.37
2019-01-26T13:46:30.296Z,4.30
2019-01-26T13:49:03.768Z,4.23
2019-01-26T13:51:37.577Z,4.23
2019-01-26T13:54:10.482Z,4.60
2019-01-26T13:56:44.064Z,4.00
2019-01-26T13:59:20.290Z,3.73
2019-01-26T14:02:06.527Z,4.53
2019-01-26T14:04:38.821Z,4.50
2019-01-26T14:07:11.362Z,4.70
2019-01-26T14:09:43.111Z,5.03
2019-01-26T14:12:14.236Z,4.80
2019-01-26T14:14:48.667Z,5.07
2019-01-26T14:17:21.566Z,5.17
2019-01-26T14:19:55.506Z,5.13
2019-01-26T14:22:28.773Z,5.60
2019-01-26T14:24:59.345Z,6.37
2019-01-26T14:27:32.349Z,5.53
2019-01-26T14:30:09.447Z,8.67
2019-01-26T14:32:40.281Z,6.93
2019-01-26T14:35:12.386Z,6.00
2019-01-26T14:37:43.621Z,6.60
2019-01-26T14:40:20.172Z,6.83
2019-01-26T14:42:54.338Z,6.53
2019-01-26T14:45:29.403Z,7.00
2019-01-26T14:48:03.961Z,8.87
2019-01-26T14:50:36.543Z,6.87
2019-01-26T14:53:10.967Z,7.67
2019-01-26T14:55:42.523Z,7.60
2019-01-26T14:58:13.954Z,7.70
2019-01-26T15:00:46.587Z,7.23
2019-01-26T15:03:20.198Z,7.37
2019-01-26T15:05:53.841Z,7.67
2019-01-26T15:08:31.810Z,7.23
2019-01-26T15:11:06.729Z,7.63
2019-01-26T15:13:39.602Z,7.80
2019-01-26T15:16:23.701Z,8.37
2019-01-26T15:18:55.430Z,8.73
2019-01-26T15:21:37.392Z,9.70
2019-01-26T15:24:11.470Z,9.90
2019-01-26T15:26:44.861Z,11.00
2019-01-26T15:29:18.112Z,13.50
2019-01-26T15:31:52.733Z,12.00
2019-01-26T15:34:24.643Z,13.07
2019-01-26T15:36:58.438Z,13.67
2019-01-26T15:39:35.906Z,13.47
2019-01-26T15:42:09.718Z,13.20
2019-01-26T15:44:43.614Z,12.30
2019-01-26T15:47:22.457Z,12.60
2019-01-26T15:50:05.570Z,13.37
2019-01-26T15:52:36.300Z,11.90
2019-01-26T15:55:13.575Z,12.83
2019-01-26T15:57:44.539Z,12.23
2019-01-26T16:00:27.468Z,11.90
2019-01-26T16:02:59.660Z,11.63
2019-01-26T16:05:31.566Z,11.57
2019-01-26T16:08:05.272Z,11.23
2019-01-26T16:10:58.177Z,11.27
2019-01-26T16:13:34.934Z,10.90
2019-01-26T16:16:08.354Z,11.40
2019-01-26T16:18:44.700Z,11.20
2019-01-26T16:21:17.147Z,10.57
2019-01-26T16:23:48.848Z,11.13
2019-01-26T16:26:23.069Z,11.20
2019-01-26T16:28:53.520Z,10.43
2019-01-26T16:31:25.848Z,11.03
2019-01-26T16:33:57.107Z,14.17
2019-01-26T16:36:30.138Z,13.23
2019-01-26T16:39:01.742Z,12.63
2019-01-26T16:41:32.740Z,13.03
2019-01-26T16:44:06.270Z,14.33
2019-01-26T16:46:38.798Z,16.20
2019-01-26T16:49:11.379Z,14.13
2019-01-26T16:51:43.214Z,14.20
2019-01-26T16:54:15.541Z,14.80
2019-01-26T16:56:45.884Z,14.87
2019-01-26T16:59:16.327Z,14.20
2019-01-26T17:01:47.512Z,16.70
2019-01-26T17:04:21.621Z,15.37
2019-01-26T17:06:53.600Z,17.17
2019-01-26T17:09:25.531Z,17.30
2019-01-26T17:11:57.254Z,16.97
2019-01-26T17:14:30.154Z,18.57
2019-01-26T17:17:02.686Z,16.87
2019-01-26T17:19:34.705Z,15.27
2019-01-26T17:22:05.792Z,16.37
2019-01-26T17:24:36.211Z,17.70
2019-01-26T17:27:08.843Z,20.47
2019-01-26T17:29:39.932Z,15.23
2019-01-26T17:32:11.941Z,19.43
2019-01-26T17:34:44.565Z,14.60
2019-01-26T17:37:16.643Z,14.20
2019-01-26T17:39:48.495Z,13.77
2019-01-26T17:42:22.951Z,12.20
2019-01-26T17:44:55.021Z,11.77
2019-01-26T17:47:27.074Z,11.93
2019-01-26T17:49:59.865Z,13.10
2019-01-26T17:52:33.038Z,12.80
2019-01-26T17:55:09.863Z,12.70
2019-01-26T17:57:41.791Z,12.97
2019-01-26T18:00:22.755Z,12.60
2019-01-26T18:02:56.140Z,12.20
2019-01-26T18:05:27.020Z,12.13
2019-01-26T18:08:02.668Z,10.97
2019-01-26T18:10:33.192Z,11.20
2019-01-26T18:13:04.022Z,12.00
2019-01-26T18:15:35.366Z,12.47
2019-01-26T18:18:07.953Z,11.63
2019-01-26T18:20:39.511Z,11.63
2019-01-26T18:23:11.939Z,10.83
2019-01-26T18:25:55.998Z,11.40
2019-01-26T18:31:48.762Z,10.17
2019-01-26T18:34:24.778Z,10.63
2019-01-26T18:37:09.908Z,10.93
2019-01-26T18:39:45.400Z,11.03
2019-01-26T18:42:45.792Z,11.10
2019-01-26T18:45:29.289Z,10.80
2019-01-26T18:48:02.503Z,10.63
2019-01-26T18:50:42.036Z,10.27
2019-01-26T18:53:16.397Z,8.90
2019-01-26T18:55:53.115Z,18.33
2019-01-26T18:58:25.258Z,9.03
2019-01-26T19:00:56.817Z,9.53
2019-01-26T19:03:37.936Z,8.47
2019-01-26T19:06:09.345Z,8.30
2019-01-26T19:08:42.071Z,9.30
2019-01-26T19:11:13.660Z,9.47
2019-01-26T19:13:46.278Z,9.27
2019-01-26T19:16:19.589Z,8.87
2019-01-26T19:18:50.732Z,8.67
2019-01-26T19:21:21.853Z,9.03
2019-01-26T19:23:54.748Z,8.87
2019-01-26T19:26:25.969Z,8.53
2019-01-26T19:28:58.166Z,8.87
2019-01-26T19:31:30.555Z,8.70
2019-01-26T19:34:03.141Z,9.10
2019-01-26T19:36:35.974Z,9.97
2019-01-26T19:39:09.144Z,9.87
2019-01-26T19:41:43.041Z,9.87
2019-01-26T19:44:15.213Z,9.40
2019-01-26T19:46:45.292Z,10.23
2019-01-26T19:49:16.225Z,10.00
2019-01-26T19:51:52.224Z,10.77
2019-01-26T19:54:25.642Z,10.27
2019-01-26T19:56:58.189Z,10.67
2019-01-26T19:59:28.875Z,10.50
2019-01-26T20:02:00.461Z,10.40
2019-01-26T20:04:33.999Z,10.57
2019-01-26T20:07:08.699Z,11.87
2019-01-26T20:09:41.591Z,10.80
2019-01-26T20:12:13.947Z,10.53
2019-01-26T20:14:48.157Z,10.67
2019-01-26T20:17:21.113Z,25.90
2019-01-26T20:19:52.323Z,24.17
2019-01-26T20:22:25.287Z,13.63
2019-01-26T20:24:58.942Z,11.60
2019-01-26T20:27:30.088Z,14.63
2019-01-26T20:30:04.696Z,13.90
2019-01-26T20:32:37.216Z,13.10
2019-01-26T20:35:11.488Z,13.43
2019-01-26T20:37:47.925Z,12.50
2019-01-26T20:40:21.037Z,13.53
2019-01-26T20:42:56.040Z,11.20
2019-01-26T20:45:31.335Z,11.27
2019-01-26T20:48:04.996Z,10.70
2019-01-26T20:50:38.940Z,10.87
2019-01-26T20:53:14.768Z,10.47
2019-01-26T20:55:47.212Z,13.70
2019-01-26T20:58:17.863Z,20.53
2019-01-26T21:00:48.405Z,22.73
2019-01-26T21:03:19.149Z,36.23
2019-01-26T21:05:49.913Z,28.70
2019-01-26T21:08:21.724Z,16.07
2019-01-26T21:10:52.777Z,13.17
2019-01-26T21:13:25.090Z,11.47
2019-01-26T21:15:55.157Z,12.17
2019-01-26T21:18:25.804Z,11.87
2019-01-26T21:20:57.903Z,12.87
2019-01-26T21:23:28.126Z,11.43
2019-01-26T21:25:59.423Z,12.87
2019-01-26T21:28:29.998Z,12.17
2019-01-26T21:31:02.262Z,11.13
2019-01-26T21:33:35.714Z,12.33
2019-01-26T21:36:09.934Z,11.93
2019-01-26T21:38:43.965Z,12.00
2019-01-26T21:41:21.153Z,13.10
2019-01-26T21:43:54.303Z,12.40
2019-01-26T21:46:27.650Z,13.10
2019-01-26T21:48:57.986Z,13.93
2019-01-26T21:51:31.071Z,13.77
2019-01-26T21:54:03.759Z,15.47
2019-01-26T21:56:35.282Z,14.80
2019-01-26T21:59:07.767Z,16.13
2019-01-26T22:01:44.790Z,16.53
2019-01-26T22:04:14.763Z,16.87
2019-01-26T22:06:48.637Z,17.10
2019-01-26T22:09:34.129Z,16.77
2019-01-26T22:12:04.549Z,17.47
2019-01-26T22:14:36.438Z,17.90
2019-01-26T22:17:07.811Z,18.87
2019-01-26T22:19:38.182Z,17.30
2019-01-26T22:24:52.212Z,18.23
2019-01-26T22:27:24.285Z,18.03
2019-01-26T22:29:58.778Z,18.47
2019-01-26T22:32:29.781Z,20.50
2019-01-26T22:35:01.544Z,19.67
2019-01-26T22:37:32.549Z,19.43
2019-01-26T22:40:02.787Z,19.37
2019-01-26T22:42:34.848Z,19.83
2019-01-26T22:45:10.159Z,21.47
2019-01-26T22:47:40.841Z,20.93
2019-01-26T22:50:14.129Z,20.97
2019-01-26T22:52:45.237Z,21.47
2019-01-26T22:55:19.974Z,20.87
2019-01-26T22:57:50.544Z,22.00
2019-01-26T23:00:43.438Z,20.70
2019-01-26T23:03:15.323Z,23.20
2019-01-26T23:05:58.482Z,23.10
2019-01-26T23:08:38.299Z,23.90
2019-01-26T23:11:15.760Z,24.50
2019-01-26T23:13:49.800Z,25.13
2019-01-26T23:16:51.849Z,26.53
2019-01-26T23:19:27.244Z,25.73
2019-01-26T23:22:06.233Z,27.87
2019-01-26T23:24:57.858Z,27.70
2019-01-26T23:27:55.769Z,27.10
2019-01-26T23:30:35.758Z,28.27
2019-01-26T23:33:06.638Z,27.53
2019-01-26T23:35:36.801Z,28.87
2019-01-26T23:38:07.628Z,26.57
2019-01-26T23:40:39.183Z,29.10
2019-01-26T23:43:13.531Z,30.77
2019-01-26T23:45:49.495Z,29.90
2019-01-26T23:48:24.205Z,29.77
2019-01-26T23:50:55.592Z,28.07
2019-01-26T23:53:26.504Z,29.27
2019-01-26T23:55:57.885Z,29.73
2019-01-26T23:58:28.601Z,29.13
